Cochrane, Canada
Current Conditions -  °F | °C
As of 5:00 PM on Thursday 18 Dec 2014 (Local Time) from CYBW Reporting Station
Clear Clear  
Wind Chill: 21°   Ceiling: Unl
Heat Index: 27°   Visibility: 9mi
Dew Point: 21°   Wind: 5mph
Humidity: 80%   Direction: 220°SW
Pressure: 29.78"   Gusts: NA
Location:  51.2°N, 114.45°W
Report Text: CYBW 190000Z AUTO 22004KT 9SM CLR M03/M06 A2978 RMK SLP142
Loading
Personal Weather Stations






























Interactive Weather Map New forecast layout! Learn more

10-Day Weather Forecast

Advertisements
Track Severe Weather on mobile